Terminal Aerodrome Forecast
Issued by NWS

Home | Current Version | Previous Version | Text Only | Print | Product List | Glossary On
Versions: 1 2 3 4 5 6 7 8 9 10 11 12 13 14 15 16 17 18 19 20 21 22
000
FTUS43 KAPX 072337
TAFTVC
TAF
KTVC 072337Z 0800/0824 25012G22KT P6SM -SHSN OVC028
     FM081200 26013G23KT P6SM -SHSN OVC020
     FM081500 27013G23KT 2SM -SHSN BLSN OVC020
     FM081900 31012G23KT 6SM -SHSN BLSN OVC020=

USA.gov is the U.S. government's official web portal to all federal, state and local government web resources and services.